Waukee, IA

11:35 AM CST on November 22, 2019 (GMT -0600)
Northview DR | | Change Station

Elev 1030 ft 41.61 °N, 93.88 °W | Updated 2 minutes ago

Mostly Cloudy
Mostly Cloudy
33.584 °F
Feels Like 34 °F
N
0
Wind Variable Wind from NW
Gusts 0.0 mph

Today
High -- | Low -- °F
--% Chance of Precip.
Yesterday
High -- | Low -- °F
Precip. -- in
Pressure 30.29 in
Visibility 10.0 miles
Clouds Few 1300 ft
Few 25000 ft
Windchill 34 °F
Dew Point 25 °F
Humidity 69%
Rainfall 0.00 in
Snow Depth Not available.
7:12 AM 4:50 PM
Waning Crescent, 19% visible
METAR KDSM 221654Z VRB05KT 10SM FEW013 FEW250 M03/M08 A3025 RMK AO2 SLP256 T10281078
Pressure 30.29 in
Visibility 10.0 miles
Clouds Few 1300 ft
Few 25000 ft
Windchill 34 °F
Dew Point 25 °F
Humidity 69%
Rainfall 0.00 in
Snow Depth Not available.
7:12 AM 4:50 PM
Waning Crescent, 19% visible
METAR KDSM 221654Z VRB05KT 10SM FEW013 FEW250 M03/M08 A3025 RMK AO2 SLP256 T10281078

Get Severe Weather Alerts

Thanks for signing up!

Be on the lookout for a verification email in your inbox.

You'll start receiving the daily forecast at 6 AM.

×

10-Day Weather Forecast

Almanac

Astronomy

Nov. 22, 2019 Rise Set
Actual Time
Civil Twilight
Nautical Twilight
Astronomical Twilight
Moon
Length of Visible Light
Length of Day
Tomorrow will be .
, % of the Moon is Illuminated

Today's Extremes

State Highs State Lows

Community

WunderPhotos

Category 6

Welcome to Category 6. This is the collective home for Weather Underground's featured writeups by Dr. Jeff Masters (right), Bob Henson (left), Chris Burt, and other regular contributors.

Nearby

Air Quality

  Air Quality AQ Index Pollutant
Not available.

Snow Depth

Station Depth Elevation

Earthquake Activity

City Distance Mag. Time & Date
Minimum magnitude displayed is 2.5.

Coastal Water Temperatures

Place Temperature

Stations

Nearby Weather Stations

Station Location Temp. Windchill Dew Point Humidity Wind Precip. Elev Updated Type
                   

Watches & Warnings

There are currently no watches in effect.